<?xml version="1.0" encoding="UTF-8" standalone="no" ?>
<gpx xmlns="http://www.topografix.com/GPX/1/1" xmlns:xsi="http://www.w3.org/2001/XMLSchema-instance" xsi:schemaLocation="http://www.topografix.com/GPX/1/1 http://www.topografix.com/GPX/1/1/gpx.xsd" version="1.1" creator="VisuGPX - https://www.visugpx.com">
  <metadata>
    <name>COURSE A PIEDS AOUT 2017</name>
    <desc><![CDATA[REMISE A NIVEAU POUR LE GEIJUTSU  ]]></desc>
  </metadata>
  <trk>
    <name><![CDATA[COURSE A PIEDS AOUT 2017_1]]></name>
    <trkseg>
      <trkpt lat="49.87953" lon="5.23988">
        <ele>402</ele>
        <time>2017-08-04T06:23:04Z</time>
      </trkpt>
      <trkpt lat="49.87929" lon="5.23953">
        <ele>402</ele>
        <time>2017-08-04T06:23:14Z</time>
      </trkpt>
      <trkpt lat="49.87924" lon="5.23934">
        <ele>402</ele>
        <time>2017-08-04T06:23:24Z</time>
      </trkpt>
      <trkpt lat="49.87936" lon="5.23896">
        <ele>402</ele>
        <time>2017-08-04T06:23:35Z</time>
      </trkpt>
      <trkpt lat="49.87947" lon="5.23854">
        <ele>401</ele>
        <time>2017-08-04T06:23:46Z</time>
      </trkpt>
      <trkpt lat="49.87956" lon="5.23809">
        <ele>401</ele>
        <time>2017-08-04T06:23:57Z</time>
      </trkpt>
      <trkpt lat="49.87969" lon="5.23766">
        <ele>399</ele>
        <time>2017-08-04T06:24:08Z</time>
      </trkpt>
      <trkpt lat="49.87984" lon="5.2373">
        <ele>399</ele>
        <time>2017-08-04T06:24:18Z</time>
      </trkpt>
      <trkpt lat="49.88004" lon="5.23698">
        <ele>398</ele>
        <time>2017-08-04T06:24:29Z</time>
      </trkpt>
      <trkpt lat="49.88022" lon="5.23667">
        <ele>397</ele>
        <time>2017-08-04T06:24:40Z</time>
      </trkpt>
      <trkpt lat="49.88042" lon="5.23631">
        <ele>396</ele>
        <time>2017-08-04T06:24:51Z</time>
      </trkpt>
      <trkpt lat="49.88061" lon="5.23597">
        <ele>395</ele>
        <time>2017-08-04T06:25:02Z</time>
      </trkpt>
      <trkpt lat="49.88078" lon="5.23568">
        <ele>394</ele>
        <time>2017-08-04T06:25:12Z</time>
      </trkpt>
      <trkpt lat="49.88094" lon="5.23538">
        <ele>394</ele>
        <time>2017-08-04T06:25:23Z</time>
      </trkpt>
      <trkpt lat="49.88108" lon="5.23509">
        <ele>394</ele>
        <time>2017-08-04T06:25:33Z</time>
      </trkpt>
      <trkpt lat="49.88123" lon="5.23475">
        <ele>392</ele>
        <time>2017-08-04T06:25:44Z</time>
      </trkpt>
      <trkpt lat="49.88143" lon="5.2344">
        <ele>392</ele>
        <time>2017-08-04T06:25:55Z</time>
      </trkpt>
      <trkpt lat="49.88161" lon="5.23404">
        <ele>393</ele>
        <time>2017-08-04T06:26:06Z</time>
      </trkpt>
      <trkpt lat="49.88178" lon="5.2337">
        <ele>393</ele>
        <time>2017-08-04T06:26:17Z</time>
      </trkpt>
      <trkpt lat="49.88191" lon="5.23333">
        <ele>394</ele>
        <time>2017-08-04T06:26:27Z</time>
      </trkpt>
      <trkpt lat="49.88183" lon="5.23298">
        <ele>394</ele>
        <time>2017-08-04T06:26:37Z</time>
      </trkpt>
      <trkpt lat="49.88168" lon="5.23264">
        <ele>394</ele>
        <time>2017-08-04T06:26:48Z</time>
      </trkpt>
      <trkpt lat="49.88158" lon="5.23232">
        <ele>394</ele>
        <time>2017-08-04T06:26:58Z</time>
      </trkpt>
      <trkpt lat="49.88148" lon="5.23197">
        <ele>393</ele>
        <time>2017-08-04T06:27:08Z</time>
      </trkpt>
      <trkpt lat="49.88138" lon="5.23158">
        <ele>394</ele>
        <time>2017-08-04T06:27:19Z</time>
      </trkpt>
      <trkpt lat="49.88127" lon="5.23119">
        <ele>393</ele>
        <time>2017-08-04T06:27:30Z</time>
      </trkpt>
      <trkpt lat="49.88116" lon="5.23082">
        <ele>393</ele>
        <time>2017-08-04T06:27:40Z</time>
      </trkpt>
      <trkpt lat="49.88107" lon="5.23046">
        <ele>392</ele>
        <time>2017-08-04T06:27:50Z</time>
      </trkpt>
      <trkpt lat="49.88096" lon="5.23009">
        <ele>394</ele>
        <time>2017-08-04T06:28:01Z</time>
      </trkpt>
      <trkpt lat="49.88089" lon="5.22977">
        <ele>394</ele>
        <time>2017-08-04T06:28:11Z</time>
      </trkpt>
      <trkpt lat="49.88079" lon="5.22942">
        <ele>396</ele>
        <time>2017-08-04T06:28:22Z</time>
      </trkpt>
      <trkpt lat="49.88069" lon="5.22904">
        <ele>396</ele>
        <time>2017-08-04T06:28:33Z</time>
      </trkpt>
      <trkpt lat="49.8806" lon="5.22871">
        <ele>397</ele>
        <time>2017-08-04T06:28:43Z</time>
      </trkpt>
      <trkpt lat="49.8805" lon="5.22841">
        <ele>398</ele>
        <time>2017-08-04T06:28:53Z</time>
      </trkpt>
      <trkpt lat="49.8804" lon="5.22807">
        <ele>398</ele>
        <time>2017-08-04T06:29:03Z</time>
      </trkpt>
      <trkpt lat="49.88032" lon="5.22777">
        <ele>399</ele>
        <time>2017-08-04T06:29:13Z</time>
      </trkpt>
      <trkpt lat="49.88025" lon="5.22742">
        <ele>400</ele>
        <time>2017-08-04T06:29:24Z</time>
      </trkpt>
      <trkpt lat="49.88021" lon="5.22708">
        <ele>401</ele>
        <time>2017-08-04T06:29:34Z</time>
      </trkpt>
      <trkpt lat="49.88014" lon="5.22671">
        <ele>402</ele>
        <time>2017-08-04T06:29:45Z</time>
      </trkpt>
      <trkpt lat="49.88004" lon="5.22637">
        <ele>403</ele>
        <time>2017-08-04T06:29:55Z</time>
      </trkpt>
      <trkpt lat="49.87997" lon="5.22602">
        <ele>404</ele>
        <time>2017-08-04T06:30:06Z</time>
      </trkpt>
      <trkpt lat="49.8799" lon="5.22572">
        <ele>404</ele>
        <time>2017-08-04T06:30:16Z</time>
      </trkpt>
      <trkpt lat="49.87985" lon="5.22535">
        <ele>406</ele>
        <time>2017-08-04T06:30:26Z</time>
      </trkpt>
      <trkpt lat="49.87984" lon="5.22496">
        <ele>407</ele>
        <time>2017-08-04T06:30:36Z</time>
      </trkpt>
      <trkpt lat="49.87988" lon="5.22458">
        <ele>407</ele>
        <time>2017-08-04T06:30:46Z</time>
      </trkpt>
      <trkpt lat="49.87997" lon="5.22413">
        <ele>407</ele>
        <time>2017-08-04T06:30:57Z</time>
      </trkpt>
      <trkpt lat="49.88003" lon="5.22365">
        <ele>406</ele>
        <time>2017-08-04T06:31:08Z</time>
      </trkpt>
      <trkpt lat="49.8801" lon="5.22315">
        <ele>405</ele>
        <time>2017-08-04T06:31:19Z</time>
      </trkpt>
      <trkpt lat="49.88016" lon="5.2227">
        <ele>404</ele>
        <time>2017-08-04T06:31:30Z</time>
      </trkpt>
      <trkpt lat="49.88022" lon="5.2223">
        <ele>403</ele>
        <time>2017-08-04T06:31:40Z</time>
      </trkpt>
      <trkpt lat="49.88029" lon="5.22186">
        <ele>402</ele>
        <time>2017-08-04T06:31:50Z</time>
      </trkpt>
      <trkpt lat="49.88036" lon="5.22136">
        <ele>400</ele>
        <time>2017-08-04T06:32:01Z</time>
      </trkpt>
      <trkpt lat="49.88044" lon="5.22088">
        <ele>400</ele>
        <time>2017-08-04T06:32:12Z</time>
      </trkpt>
      <trkpt lat="49.88052" lon="5.22047">
        <ele>400</ele>
        <time>2017-08-04T06:32:22Z</time>
      </trkpt>
      <trkpt lat="49.88062" lon="5.22007">
        <ele>400</ele>
        <time>2017-08-04T06:32:33Z</time>
      </trkpt>
      <trkpt lat="49.88064" lon="5.21964">
        <ele>399</ele>
        <time>2017-08-04T06:32:43Z</time>
      </trkpt>
      <trkpt lat="49.88071" lon="5.21918">
        <ele>400</ele>
        <time>2017-08-04T06:32:54Z</time>
      </trkpt>
      <trkpt lat="49.88096" lon="5.2191">
        <ele>401</ele>
        <time>2017-08-04T06:33:04Z</time>
      </trkpt>
      <trkpt lat="49.88122" lon="5.21904">
        <ele>403</ele>
        <time>2017-08-04T06:33:15Z</time>
      </trkpt>
      <trkpt lat="49.88145" lon="5.21898">
        <ele>404</ele>
        <time>2017-08-04T06:33:25Z</time>
      </trkpt>
      <trkpt lat="49.88168" lon="5.21901">
        <ele>405</ele>
        <time>2017-08-04T06:33:35Z</time>
      </trkpt>
      <trkpt lat="49.88188" lon="5.2189">
        <ele>406</ele>
        <time>2017-08-04T06:33:45Z</time>
      </trkpt>
      <trkpt lat="49.88204" lon="5.21901">
        <ele>407</ele>
        <time>2017-08-04T06:33:55Z</time>
      </trkpt>
      <trkpt lat="49.88217" lon="5.21933">
        <ele>407</ele>
        <time>2017-08-04T06:34:06Z</time>
      </trkpt>
      <trkpt lat="49.88229" lon="5.2196">
        <ele>407</ele>
        <time>2017-08-04T06:34:16Z</time>
      </trkpt>
      <trkpt lat="49.88246" lon="5.21989">
        <ele>408</ele>
        <time>2017-08-04T06:34:27Z</time>
      </trkpt>
      <trkpt lat="49.88256" lon="5.22015">
        <ele>408</ele>
        <time>2017-08-04T06:34:37Z</time>
      </trkpt>
      <trkpt lat="49.88272" lon="5.22042">
        <ele>409</ele>
        <time>2017-08-04T06:34:48Z</time>
      </trkpt>
      <trkpt lat="49.8829" lon="5.22067">
        <ele>409</ele>
        <time>2017-08-04T06:34:58Z</time>
      </trkpt>
      <trkpt lat="49.88309" lon="5.22095">
        <ele>409</ele>
        <time>2017-08-04T06:35:09Z</time>
      </trkpt>
      <trkpt lat="49.88325" lon="5.22123">
        <ele>410</ele>
        <time>2017-08-04T06:35:20Z</time>
      </trkpt>
      <trkpt lat="49.88341" lon="5.2215">
        <ele>410</ele>
        <time>2017-08-04T06:35:31Z</time>
      </trkpt>
      <trkpt lat="49.88356" lon="5.22176">
        <ele>410</ele>
        <time>2017-08-04T06:35:41Z</time>
      </trkpt>
      <trkpt lat="49.88376" lon="5.22202">
        <ele>411</ele>
        <time>2017-08-04T06:35:52Z</time>
      </trkpt>
      <trkpt lat="49.88395" lon="5.2223">
        <ele>412</ele>
        <time>2017-08-04T06:36:03Z</time>
      </trkpt>
      <trkpt lat="49.88415" lon="5.2226">
        <ele>412</ele>
        <time>2017-08-04T06:36:14Z</time>
      </trkpt>
      <trkpt lat="49.8843" lon="5.22285">
        <ele>412</ele>
        <time>2017-08-04T06:36:24Z</time>
      </trkpt>
      <trkpt lat="49.88444" lon="5.22312">
        <ele>414</ele>
        <time>2017-08-04T06:36:34Z</time>
      </trkpt>
      <trkpt lat="49.88461" lon="5.22339">
        <ele>413</ele>
        <time>2017-08-04T06:36:45Z</time>
      </trkpt>
      <trkpt lat="49.88479" lon="5.22363">
        <ele>414</ele>
        <time>2017-08-04T06:36:56Z</time>
      </trkpt>
      <trkpt lat="49.88497" lon="5.2238">
        <ele>414</ele>
        <time>2017-08-04T06:37:06Z</time>
      </trkpt>
      <trkpt lat="49.88524" lon="5.22392">
        <ele>415</ele>
        <time>2017-08-04T06:37:16Z</time>
      </trkpt>
      <trkpt lat="49.88551" lon="5.22401">
        <ele>415</ele>
        <time>2017-08-04T06:37:26Z</time>
      </trkpt>
      <trkpt lat="49.88577" lon="5.22414">
        <ele>414</ele>
        <time>2017-08-04T06:37:37Z</time>
      </trkpt>
      <trkpt lat="49.88599" lon="5.22428">
        <ele>414</ele>
        <time>2017-08-04T06:37:47Z</time>
      </trkpt>
      <trkpt lat="49.88622" lon="5.2244">
        <ele>415</ele>
        <time>2017-08-04T06:37:58Z</time>
      </trkpt>
      <trkpt lat="49.88653" lon="5.22455">
        <ele>414</ele>
        <time>2017-08-04T06:38:09Z</time>
      </trkpt>
      <trkpt lat="49.88683" lon="5.22469">
        <ele>413</ele>
        <time>2017-08-04T06:38:20Z</time>
      </trkpt>
      <trkpt lat="49.88713" lon="5.22483">
        <ele>414</ele>
        <time>2017-08-04T06:38:30Z</time>
      </trkpt>
      <trkpt lat="49.88711" lon="5.22519">
        <ele>413</ele>
        <time>2017-08-04T06:38:41Z</time>
      </trkpt>
      <trkpt lat="49.88692" lon="5.22555">
        <ele>412</ele>
        <time>2017-08-04T06:38:51Z</time>
      </trkpt>
      <trkpt lat="49.88673" lon="5.22586">
        <ele>411</ele>
        <time>2017-08-04T06:39:02Z</time>
      </trkpt>
      <trkpt lat="49.88652" lon="5.22621">
        <ele>410</ele>
        <time>2017-08-04T06:39:12Z</time>
      </trkpt>
      <trkpt lat="49.88635" lon="5.22653">
        <ele>409</ele>
        <time>2017-08-04T06:39:22Z</time>
      </trkpt>
      <trkpt lat="49.88615" lon="5.22687">
        <ele>408</ele>
        <time>2017-08-04T06:39:32Z</time>
      </trkpt>
      <trkpt lat="49.88597" lon="5.22716">
        <ele>407</ele>
        <time>2017-08-04T06:39:43Z</time>
      </trkpt>
      <trkpt lat="49.88578" lon="5.22745">
        <ele>406</ele>
        <time>2017-08-04T06:39:53Z</time>
      </trkpt>
      <trkpt lat="49.88559" lon="5.22776">
        <ele>406</ele>
        <time>2017-08-04T06:40:04Z</time>
      </trkpt>
      <trkpt lat="49.88543" lon="5.22806">
        <ele>406</ele>
        <time>2017-08-04T06:40:14Z</time>
      </trkpt>
      <trkpt lat="49.88524" lon="5.22838">
        <ele>405</ele>
        <time>2017-08-04T06:40:25Z</time>
      </trkpt>
      <trkpt lat="49.88504" lon="5.2287">
        <ele>404</ele>
        <time>2017-08-04T06:40:36Z</time>
      </trkpt>
      <trkpt lat="49.88488" lon="5.22899">
        <ele>404</ele>
        <time>2017-08-04T06:40:46Z</time>
      </trkpt>
      <trkpt lat="49.88467" lon="5.22931">
        <ele>403</ele>
        <time>2017-08-04T06:40:57Z</time>
      </trkpt>
      <trkpt lat="49.88446" lon="5.22961">
        <ele>402</ele>
        <time>2017-08-04T06:41:07Z</time>
      </trkpt>
      <trkpt lat="49.88427" lon="5.22985">
        <ele>401</ele>
        <time>2017-08-04T06:41:18Z</time>
      </trkpt>
      <trkpt lat="49.8841" lon="5.23012">
        <ele>400</ele>
        <time>2017-08-04T06:41:28Z</time>
      </trkpt>
      <trkpt lat="49.88391" lon="5.23043">
        <ele>400</ele>
        <time>2017-08-04T06:41:39Z</time>
      </trkpt>
      <trkpt lat="49.88372" lon="5.23074">
        <ele>399</ele>
        <time>2017-08-04T06:41:49Z</time>
      </trkpt>
      <trkpt lat="49.88353" lon="5.23105">
        <ele>398</ele>
        <time>2017-08-04T06:42:00Z</time>
      </trkpt>
      <trkpt lat="49.88335" lon="5.23134">
        <ele>399</ele>
        <time>2017-08-04T06:42:11Z</time>
      </trkpt>
      <trkpt lat="49.88313" lon="5.23167">
        <ele>397</ele>
        <time>2017-08-04T06:42:22Z</time>
      </trkpt>
      <trkpt lat="49.88293" lon="5.23197">
        <ele>396</ele>
        <time>2017-08-04T06:42:32Z</time>
      </trkpt>
      <trkpt lat="49.88272" lon="5.2323">
        <ele>395</ele>
        <time>2017-08-04T06:42:43Z</time>
      </trkpt>
      <trkpt lat="49.88253" lon="5.23262">
        <ele>394</ele>
        <time>2017-08-04T06:42:53Z</time>
      </trkpt>
      <trkpt lat="49.88234" lon="5.2329">
        <ele>392</ele>
        <time>2017-08-04T06:43:04Z</time>
      </trkpt>
      <trkpt lat="49.88215" lon="5.23321">
        <ele>391</ele>
        <time>2017-08-04T06:43:14Z</time>
      </trkpt>
      <trkpt lat="49.88209" lon="5.23354">
        <ele>391</ele>
        <time>2017-08-04T06:43:24Z</time>
      </trkpt>
      <trkpt lat="49.88214" lon="5.23389">
        <ele>392</ele>
        <time>2017-08-04T06:43:35Z</time>
      </trkpt>
      <trkpt lat="49.88227" lon="5.23425">
        <ele>392</ele>
        <time>2017-08-04T06:43:46Z</time>
      </trkpt>
      <trkpt lat="49.88239" lon="5.23461">
        <ele>392</ele>
        <time>2017-08-04T06:43:56Z</time>
      </trkpt>
      <trkpt lat="49.88249" lon="5.23495">
        <ele>392</ele>
        <time>2017-08-04T06:44:06Z</time>
      </trkpt>
      <trkpt lat="49.8826" lon="5.23529">
        <ele>392</ele>
        <time>2017-08-04T06:44:17Z</time>
      </trkpt>
      <trkpt lat="49.88272" lon="5.23567">
        <ele>393</ele>
        <time>2017-08-04T06:44:27Z</time>
      </trkpt>
      <trkpt lat="49.88283" lon="5.23602">
        <ele>393</ele>
        <time>2017-08-04T06:44:38Z</time>
      </trkpt>
      <trkpt lat="49.88293" lon="5.23641">
        <ele>393</ele>
        <time>2017-08-04T06:44:48Z</time>
      </trkpt>
      <trkpt lat="49.88305" lon="5.23675">
        <ele>394</ele>
        <time>2017-08-04T06:44:58Z</time>
      </trkpt>
      <trkpt lat="49.88316" lon="5.2371">
        <ele>394</ele>
        <time>2017-08-04T06:45:09Z</time>
      </trkpt>
      <trkpt lat="49.88331" lon="5.23741">
        <ele>394</ele>
        <time>2017-08-04T06:45:20Z</time>
      </trkpt>
      <trkpt lat="49.88347" lon="5.23773">
        <ele>394</ele>
        <time>2017-08-04T06:45:31Z</time>
      </trkpt>
      <trkpt lat="49.88361" lon="5.238">
        <ele>394</ele>
        <time>2017-08-04T06:45:42Z</time>
      </trkpt>
      <trkpt lat="49.88382" lon="5.23831">
        <ele>394</ele>
        <time>2017-08-04T06:45:52Z</time>
      </trkpt>
      <trkpt lat="49.88402" lon="5.23859">
        <ele>394</ele>
        <time>2017-08-04T06:46:03Z</time>
      </trkpt>
      <trkpt lat="49.88424" lon="5.23894">
        <ele>394</ele>
        <time>2017-08-04T06:46:13Z</time>
      </trkpt>
      <trkpt lat="49.88446" lon="5.23926">
        <ele>394</ele>
        <time>2017-08-04T06:46:24Z</time>
      </trkpt>
      <trkpt lat="49.88466" lon="5.23969">
        <ele>394</ele>
        <time>2017-08-04T06:46:35Z</time>
      </trkpt>
      <trkpt lat="49.88478" lon="5.24012">
        <ele>394</ele>
        <time>2017-08-04T06:46:45Z</time>
      </trkpt>
      <trkpt lat="49.88493" lon="5.24052">
        <ele>394</ele>
        <time>2017-08-04T06:46:55Z</time>
      </trkpt>
      <trkpt lat="49.8851" lon="5.24092">
        <ele>394</ele>
        <time>2017-08-04T06:47:06Z</time>
      </trkpt>
      <trkpt lat="49.88528" lon="5.24134">
        <ele>395</ele>
        <time>2017-08-04T06:47:16Z</time>
      </trkpt>
      <trkpt lat="49.88543" lon="5.24171">
        <ele>394</ele>
        <time>2017-08-04T06:47:27Z</time>
      </trkpt>
      <trkpt lat="49.88559" lon="5.24213">
        <ele>395</ele>
        <time>2017-08-04T06:47:38Z</time>
      </trkpt>
      <trkpt lat="49.88572" lon="5.24256">
        <ele>394</ele>
        <time>2017-08-04T06:47:48Z</time>
      </trkpt>
      <trkpt lat="49.88584" lon="5.24294">
        <ele>394</ele>
        <time>2017-08-04T06:47:58Z</time>
      </trkpt>
      <trkpt lat="49.88597" lon="5.24333">
        <ele>394</ele>
        <time>2017-08-04T06:48:08Z</time>
      </trkpt>
      <trkpt lat="49.88609" lon="5.2437">
        <ele>394</ele>
        <time>2017-08-04T06:48:19Z</time>
      </trkpt>
      <trkpt lat="49.88619" lon="5.24406">
        <ele>394</ele>
        <time>2017-08-04T06:48:29Z</time>
      </trkpt>
      <trkpt lat="49.88631" lon="5.2445">
        <ele>394</ele>
        <time>2017-08-04T06:48:39Z</time>
      </trkpt>
      <trkpt lat="49.88644" lon="5.24491">
        <ele>394</ele>
        <time>2017-08-04T06:48:49Z</time>
      </trkpt>
      <trkpt lat="49.88654" lon="5.24513">
        <ele>395</ele>
        <time>2017-08-04T06:49:00Z</time>
      </trkpt>
      <trkpt lat="49.88639" lon="5.24479">
        <ele>395</ele>
        <time>2017-08-04T06:49:11Z</time>
      </trkpt>
      <trkpt lat="49.88624" lon="5.24443">
        <ele>395</ele>
        <time>2017-08-04T06:49:21Z</time>
      </trkpt>
      <trkpt lat="49.88611" lon="5.24408">
        <ele>394</ele>
        <time>2017-08-04T06:49:32Z</time>
      </trkpt>
      <trkpt lat="49.88599" lon="5.24379">
        <ele>394</ele>
        <time>2017-08-04T06:49:42Z</time>
      </trkpt>
      <trkpt lat="49.88586" lon="5.24341">
        <ele>395</ele>
        <time>2017-08-04T06:49:54Z</time>
      </trkpt>
      <trkpt lat="49.88572" lon="5.24303">
        <ele>394</ele>
        <time>2017-08-04T06:50:05Z</time>
      </trkpt>
      <trkpt lat="49.88561" lon="5.24266">
        <ele>394</ele>
        <time>2017-08-04T06:50:15Z</time>
      </trkpt>
      <trkpt lat="49.88548" lon="5.24222">
        <ele>394</ele>
        <time>2017-08-04T06:50:25Z</time>
      </trkpt>
      <trkpt lat="49.88535" lon="5.24184">
        <ele>394</ele>
        <time>2017-08-04T06:50:35Z</time>
      </trkpt>
      <trkpt lat="49.88521" lon="5.24148">
        <ele>394</ele>
        <time>2017-08-04T06:50:45Z</time>
      </trkpt>
      <trkpt lat="49.88508" lon="5.24118">
        <ele>394</ele>
        <time>2017-08-04T06:50:55Z</time>
      </trkpt>
      <trkpt lat="49.88494" lon="5.24087">
        <ele>394</ele>
        <time>2017-08-04T06:51:06Z</time>
      </trkpt>
      <trkpt lat="49.88481" lon="5.24054">
        <ele>394</ele>
        <time>2017-08-04T06:51:16Z</time>
      </trkpt>
      <trkpt lat="49.88468" lon="5.24022">
        <ele>394</ele>
        <time>2017-08-04T06:51:27Z</time>
      </trkpt>
      <trkpt lat="49.88454" lon="5.23993">
        <ele>394</ele>
        <time>2017-08-04T06:51:39Z</time>
      </trkpt>
      <trkpt lat="49.8844" lon="5.23963">
        <ele>394</ele>
        <time>2017-08-04T06:51:49Z</time>
      </trkpt>
      <trkpt lat="49.88424" lon="5.23939">
        <ele>393</ele>
        <time>2017-08-04T06:52:00Z</time>
      </trkpt>
      <trkpt lat="49.88406" lon="5.23912">
        <ele>393</ele>
        <time>2017-08-04T06:52:10Z</time>
      </trkpt>
      <trkpt lat="49.88392" lon="5.23887">
        <ele>394</ele>
        <time>2017-08-04T06:52:21Z</time>
      </trkpt>
      <trkpt lat="49.88378" lon="5.23863">
        <ele>393</ele>
        <time>2017-08-04T06:52:31Z</time>
      </trkpt>
      <trkpt lat="49.88358" lon="5.23831">
        <ele>393</ele>
        <time>2017-08-04T06:52:41Z</time>
      </trkpt>
      <trkpt lat="49.88338" lon="5.23807">
        <ele>394</ele>
        <time>2017-08-04T06:52:51Z</time>
      </trkpt>
      <trkpt lat="49.8832" lon="5.23781">
        <ele>393</ele>
        <time>2017-08-04T06:53:01Z</time>
      </trkpt>
      <trkpt lat="49.88302" lon="5.23755">
        <ele>393</ele>
        <time>2017-08-04T06:53:12Z</time>
      </trkpt>
      <trkpt lat="49.88287" lon="5.23713">
        <ele>392</ele>
        <time>2017-08-04T06:53:22Z</time>
      </trkpt>
      <trkpt lat="49.88277" lon="5.23675">
        <ele>393</ele>
        <time>2017-08-04T06:53:32Z</time>
      </trkpt>
      <trkpt lat="49.8827" lon="5.23639">
        <ele>393</ele>
        <time>2017-08-04T06:53:43Z</time>
      </trkpt>
      <trkpt lat="49.88261" lon="5.23596">
        <ele>392</ele>
        <time>2017-08-04T06:53:53Z</time>
      </trkpt>
      <trkpt lat="49.88252" lon="5.23559">
        <ele>391</ele>
        <time>2017-08-04T06:54:03Z</time>
      </trkpt>
      <trkpt lat="49.88243" lon="5.23521">
        <ele>392</ele>
        <time>2017-08-04T06:54:14Z</time>
      </trkpt>
      <trkpt lat="49.88234" lon="5.23487">
        <ele>391</ele>
        <time>2017-08-04T06:54:24Z</time>
      </trkpt>
      <trkpt lat="49.88224" lon="5.23437">
        <ele>391</ele>
        <time>2017-08-04T06:54:34Z</time>
      </trkpt>
      <trkpt lat="49.88212" lon="5.23392">
        <ele>390</ele>
        <time>2017-08-04T06:54:44Z</time>
      </trkpt>
      <trkpt lat="49.88193" lon="5.23356">
        <ele>391</ele>
        <time>2017-08-04T06:54:55Z</time>
      </trkpt>
      <trkpt lat="49.88172" lon="5.23385">
        <ele>390</ele>
        <time>2017-08-04T06:55:05Z</time>
      </trkpt>
      <trkpt lat="49.88156" lon="5.23423">
        <ele>389</ele>
        <time>2017-08-04T06:55:15Z</time>
      </trkpt>
      <trkpt lat="49.88142" lon="5.23463">
        <ele>388</ele>
        <time>2017-08-04T06:55:25Z</time>
      </trkpt>
      <trkpt lat="49.88128" lon="5.23503">
        <ele>388</ele>
        <time>2017-08-04T06:55:36Z</time>
      </trkpt>
      <trkpt lat="49.88113" lon="5.23535">
        <ele>390</ele>
        <time>2017-08-04T06:55:46Z</time>
      </trkpt>
      <trkpt lat="49.88099" lon="5.23567">
        <ele>390</ele>
        <time>2017-08-04T06:55:57Z</time>
      </trkpt>
      <trkpt lat="49.88081" lon="5.23596">
        <ele>391</ele>
        <time>2017-08-04T06:56:08Z</time>
      </trkpt>
      <trkpt lat="49.88061" lon="5.23631">
        <ele>392</ele>
        <time>2017-08-04T06:56:18Z</time>
      </trkpt>
      <trkpt lat="49.88043" lon="5.23663">
        <ele>393</ele>
        <time>2017-08-04T06:56:28Z</time>
      </trkpt>
      <trkpt lat="49.88025" lon="5.23695">
        <ele>393</ele>
        <time>2017-08-04T06:56:38Z</time>
      </trkpt>
      <trkpt lat="49.88006" lon="5.23729">
        <ele>395</ele>
        <time>2017-08-04T06:56:49Z</time>
      </trkpt>
      <trkpt lat="49.87991" lon="5.23762">
        <ele>396</ele>
        <time>2017-08-04T06:57:00Z</time>
      </trkpt>
      <trkpt lat="49.87978" lon="5.23798">
        <ele>397</ele>
        <time>2017-08-04T06:57:10Z</time>
      </trkpt>
      <trkpt lat="49.87967" lon="5.23828">
        <ele>397</ele>
        <time>2017-08-04T06:57:20Z</time>
      </trkpt>
      <trkpt lat="49.87953" lon="5.23874">
        <ele>399</ele>
        <time>2017-08-04T06:57:31Z</time>
      </trkpt>
      <trkpt lat="49.8794" lon="5.2392">
        <ele>399</ele>
        <time>2017-08-04T06:57:41Z</time>
      </trkpt>
      <trkpt lat="49.87934" lon="5.23965">
        <ele>399</ele>
        <time>2017-08-04T06:57:52Z</time>
      </trkpt>
      <trkpt lat="49.87948" lon="5.23978">
        <ele>400</ele>
        <time>2017-08-04T06:57:53Z</time>
      </trkpt>
    </trkseg>
  </trk>
</gpx>